Time;durP1;ratioP1;P1;durP2;ratioP2;P2;SDS_P1;SDS_P2;PMS_P1;PMS_P2;Temp;Humidity;BMP_temperature;BMP_pressure;BME280_temperature;BME280_humidity;BME280_pressure;Samples;Min_cycle;Max_cycle;Signal;HPM_P1;HPM_P2
2022/07/11 00:01:45;;;;;;;5.30;2.17;;;18.80;99.90;;;;;;5061215;28;20493;-79
2022/07/11 00:04:12;;;;;;;4.33;2.00;;;18.80;99.90;;;;;;5056340;28;20982;-78
2022/07/11 00:06:39;;;;;;;9.57;2.40;;;18.80;99.90;;;;;;5068789;28;20895;-80
2022/07/11 00:09:06;;;;;;;3.30;1.80;;;18.80;99.90;;;;;;5061195;28;20487;-78
2022/07/11 00:11:33;;;;;;;3.60;1.93;;;18.80;99.90;;;;;;5054615;28;21109;-78
2022/07/11 00:14:01;;;;;;;8.70;2.60;;;18.70;99.90;;;;;;5056258;28;20502;-78
2022/07/11 00:16:28;;;;;;;4.77;2.30;;;18.70;99.90;;;;;;5065766;28;20489;-78
2022/07/11 00:18:55;;;;;;;4.33;2.50;;;18.70;99.90;;;;;;5066875;28;20472;-79
2022/07/11 00:21:22;;;;;;;5.37;2.53;;;18.70;99.90;;;;;;5055281;28;20574;-79
2022/07/11 00:23:48;;;;;;;5.50;2.33;;;18.70;99.90;;;;;;5053653;28;20452;-79
2022/07/11 00:26:15;;;;;;;3.43;1.93;;;18.70;99.90;;;;;;5054794;28;20485;-79
2022/07/11 00:28:42;;;;;;;4.80;2.33;;;18.70;99.90;;;;;;5073677;28;20533;-77
2022/07/11 00:31:10;;;;;;;3.77;1.87;;;18.80;99.90;;;;;;5057204;28;20502;-77
2022/07/11 00:33:38;;;;;;;3.20;2.40;;;18.70;99.90;;;;;;5084656;28;20539;-79
2022/07/11 00:36:05;;;;;;;3.63;1.83;;;18.70;99.90;;;;;;5063928;28;20462;-78
2022/07/11 00:38:32;;;;;;;6.30;2.13;;;18.70;99.90;;;;;;5054071;28;20537;-79
2022/07/11 00:40:59;;;;;;;3.93;2.30;;;18.70;99.90;;;;;;5054519;28;20967;-77
2022/07/11 00:43:31;;;;;;;6.63;2.83;;;18.70;99.90;;;;;;5056097;28;20457;-78
2022/07/11 00:45:58;;;;;;;4.10;2.00;;;18.70;99.90;;;;;;5073722;28;21287;-79
2022/07/11 00:48:27;;;;;;;6.87;2.37;;;18.60;99.90;;;;;;5073866;28;20450;-78
2022/07/11 00:50:54;;;;;;;4.57;2.10;;;18.60;99.90;;;;;;5060587;28;20526;-79
2022/07/11 00:53:21;;;;;;;3.93;2.60;;;18.60;99.90;;;;;;5069208;28;20557;-79
2022/07/11 00:55:48;;;;;;;3.70;2.30;;;18.50;99.90;;;;;;5062407;28;20545;-77
2022/07/11 00:58:15;;;;;;;4.33;2.10;;;18.40;99.90;;;;;;5054354;28;20454;-78
2022/07/11 01:00:42;;;;;;;6.37;2.73;;;18.40;99.90;;;;;;5053526;28;20529;-78
2022/07/11 01:03:09;;;;;;;6.33;2.03;;;18.30;99.90;;;;;;5065382;28;20552;-80
2022/07/11 01:05:37;;;;;;;5.10;2.50;;;18.30;99.90;;;;;;5063866;28;20458;-80
2022/07/11 01:08:05;;;;;;;4.77;2.73;;;18.20;99.90;;;;;;5073394;28;20460;-79
2022/07/11 01:10:33;;;;;;;6.23;2.33;;;18.10;99.90;;;;;;5060841;28;20477;-77
2022/07/11 01:13:00;;;;;;;5.43;2.40;;;18.10;99.90;;;;;;5061276;28;20474;-78
2022/07/11 01:15:27;;;;;;;5.53;2.53;;;18.00;99.90;;;;;;5071018;28;20540;-77
2022/07/11 01:17:55;;;;;;;3.47;2.03;;;18.00;99.90;;;;;;5065831;28;20484;-80
2022/07/11 01:20:22;;;;;;;6.30;3.40;;;17.90;99.90;;;;;;5061467;28;21001;-78
2022/07/11 01:22:53;;;;;;;4.33;2.37;;;17.80;99.90;;;;;;5068240;28;20477;-77
2022/07/11 01:25:30;;;;;;;4.70;2.47;;;17.80;99.90;;;;;;5073530;28;20492;-78
2022/07/11 01:27:58;;;;;;;5.63;2.13;;;17.80;99.90;;;;;;5073492;28;20867;-77
2022/07/11 01:30:25;;;;;;;4.73;2.40;;;17.70;99.90;;;;;;5068901;28;20939;-79
2022/07/11 01:32:52;;;;;;;4.17;2.20;;;17.60;99.90;;;;;;5066971;28;20536;-80
2022/07/11 01:35:20;;;;;;;3.70;2.10;;;17.50;99.90;;;;;;5067522;28;20993;-77
2022/07/11 01:37:46;;;;;;;7.63;2.40;;;17.50;99.90;;;;;;5070954;28;20881;-79
2022/07/11 01:40:13;;;;;;;7.60;2.40;;;17.50;99.90;;;;;;5079720;28;20459;-79
2022/07/11 01:42:42;;;;;;;3.43;2.50;;;17.40;99.90;;;;;;5079558;28;20582;-78
2022/07/11 01:45:10;;;;;;;4.37;2.10;;;17.40;99.90;;;;;;5062235;28;20543;-80
2022/07/11 01:47:37;;;;;;;5.43;2.57;;;17.40;99.90;;;;;;5071227;28;20534;-80
2022/07/11 01:50:05;;;;;;;4.47;2.70;;;17.30;99.90;;;;;;5053503;28;20482;-79
2022/07/11 01:52:32;;;;;;;4.23;2.30;;;17.30;99.90;;;;;;5053701;28;20537;-79
2022/07/11 01:54:59;;;;;;;6.10;2.63;;;17.30;99.90;;;;;;5057592;28;20974;-77
2022/07/11 01:57:26;;;;;;;5.23;2.73;;;17.20;99.90;;;;;;5053318;28;20460;-78
2022/07/11 01:59:54;;;;;;;4.17;1.97;;;17.20;99.90;;;;;;5073105;28;20530;-80
2022/07/11 02:02:21;;;;;;;3.40;1.87;;;17.20;99.90;;;;;;5080153;28;20616;-79
2022/07/11 02:04:48;;;;;;;4.53;2.07;;;17.20;99.90;;;;;;5053244;28;20521;-80
2022/07/11 02:08:11;;;;;;;4.30;1.97;;;17.20;99.90;;;;;;5053484;28;20482;-79
2022/07/11 02:10:01;;;;;;;4.10;2.90;;;17.30;99.90;;;;;;5061436;28;20875;-79
2022/07/11 02:12:28;;;;;;;3.73;2.13;;;17.30;99.90;;;;;;5059871;28;20508;-79
2022/07/11 02:14:56;;;;;;;4.13;2.40;;;17.30;99.90;;;;;;5064140;28;20450;-80
2022/07/11 02:17:23;;;;;;;3.07;2.30;;;17.30;99.90;;;;;;5052845;28;20542;-77
2022/07/11 02:19:50;;;;;;;3.50;2.20;;;17.30;99.90;;;;;;5065759;28;20439;-78
2022/07/11 02:22:17;;;;;;;5.87;2.43;;;17.40;99.90;;;;;;5075078;28;20856;-78
2022/07/11 02:24:43;;;;;;;4.93;2.37;;;17.40;99.90;;;;;;5072136;28;20443;-80
2022/07/11 02:27:10;;;;;;;4.00;2.60;;;17.40;99.90;;;;;;5073130;28;20486;-78
2022/07/11 02:29:37;;;;;;;5.87;2.70;;;17.40;99.90;;;;;;5073281;28;20486;-79
2022/07/11 02:32:06;;;;;;;7.00;2.70;;;17.50;99.90;;;;;;5092380;28;20537;-78
2022/07/11 02:34:33;;;;;;;4.67;2.80;;;17.50;99.90;;;;;;5092086;28;20518;-78
2022/07/11 02:37:01;;;;;;;6.93;2.73;;;17.50;99.90;;;;;;5092447;28;20541;-79
2022/07/11 02:39:28;;;;;;;4.90;2.67;;;17.60;99.90;;;;;;5091625;28;20457;-78
2022/07/11 02:41:54;;;;;;;9.23;3.30;;;17.60;99.90;;;;;;5090995;28;21025;-79
2022/07/11 02:44:21;;;;;;;4.93;2.60;;;17.50;99.90;;;;;;5090127;28;20456;-79
2022/07/11 02:46:48;;;;;;;8.70;3.30;;;17.60;99.90;;;;;;5070972;28;20461;-79
2022/07/11 02:49:16;;;;;;;4.60;3.17;;;17.60;99.90;;;;;;5070824;28;20546;-79
2022/07/11 02:51:43;;;;;;;15.80;3.43;;;17.60;99.90;;;;;;5053103;28;20517;-80
2022/07/11 02:54:10;;;;;;;5.03;3.40;;;17.60;99.90;;;;;;5054025;28;20495;-77
2022/07/11 02:56:37;;;;;;;4.40;2.93;;;17.60;99.90;;;;;;5070347;28;20475;-78
2022/07/11 02:59:04;;;;;;;8.13;3.40;;;17.60;99.90;;;;;;5073657;28;20542;-80
2022/07/11 03:01:31;;;;;;;4.93;3.00;;;17.70;99.90;;;;;;5054505;28;20513;-79
2022/07/11 03:03:58;;;;;;;4.97;3.30;;;17.70;99.90;;;;;;5053784;28;20560;-78
2022/07/11 03:06:26;;;;;;;8.70;2.73;;;17.70;99.90;;;;;;5054479;28;20541;-78
2022/07/11 03:08:53;;;;;;;3.87;2.27;;;17.70;99.90;;;;;;5064567;28;20536;-79
2022/07/11 03:11:20;;;;;;;8.07;3.47;;;17.70;99.90;;;;;;5060661;28;20565;-79
2022/07/11 03:13:47;;;;;;;5.70;3.00;;;17.70;99.90;;;;;;5065973;28;20456;-76
2022/07/11 03:16:14;;;;;;;5.90;2.47;;;17.70;99.90;;;;;;5074500;28;20551;-79
2022/07/11 03:18:40;;;;;;;4.83;2.27;;;17.80;99.90;;;;;;5064375;28;20458;-79
2022/07/11 03:21:08;;;;;;;6.60;2.30;;;17.80;99.90;;;;;;5054432;28;20536;-78
2022/07/11 03:23:36;;;;;;;6.53;2.60;;;17.80;99.90;;;;;;5074085;28;20521;-78
2022/07/11 03:26:03;;;;;;;7.40;2.57;;;17.80;99.90;;;;;;5085048;28;20554;-80
2022/07/11 03:28:30;;;;;;;5.80;2.80;;;17.80;99.90;;;;;;5075519;28;20453;-79
2022/07/11 03:30:56;;;;;;;4.90;2.80;;;17.80;99.90;;;;;;5054168;28;20484;-79
2022/07/11 03:33:24;;;;;;;4.87;2.80;;;17.90;99.90;;;;;;5054113;28;20454;-79
2022/07/11 03:35:51;;;;;;;4.87;2.57;;;17.90;99.90;;;;;;5054482;28;20841;-79
2022/07/11 03:38:19;;;;;;;7.50;2.80;;;17.90;99.90;;;;;;5058782;28;20552;-79
2022/07/11 03:40:49;;;;;;;6.70;2.10;;;17.80;99.90;;;;;;5073632;28;20453;-77
2022/07/11 03:43:16;;;;;;;5.67;2.73;;;17.90;99.90;;;;;;5072930;28;20568;-79
2022/07/11 03:45:43;;;;;;;4.83;2.80;;;17.90;99.90;;;;;;5069149;28;20462;-79
2022/07/11 03:48:11;;;;;;;5.40;2.60;;;17.90;99.90;;;;;;5057884;28;20842;-79
2022/07/11 03:50:38;;;;;;;6.27;2.90;;;17.90;99.90;;;;;;5070840;28;20551;-80
2022/07/11 03:53:04;;;;;;;5.03;2.27;;;17.90;99.90;;;;;;5052696;28;20565;-79
2022/07/11 03:55:32;;;;;;;3.00;2.30;;;17.90;99.90;;;;;;5075984;28;21052;-80
2022/07/11 03:58:00;;;;;;;4.30;2.33;;;17.90;99.90;;;;;;5063594;28;20454;-78
2022/07/11 04:00:27;;;;;;;6.50;2.20;;;17.90;99.90;;;;;;5061536;28;20460;-79
2022/07/11 04:02:54;;;;;;;5.43;2.50;;;18.00;99.90;;;;;;5065041;28;20507;-82
2022/07/11 04:05:21;;;;;;;5.63;2.50;;;18.00;99.90;;;;;;5066695;28;20479;-83
2022/07/11 04:07:48;;;;;;;4.93;2.27;;;18.00;99.90;;;;;;5067831;28;20520;-81
2022/07/11 04:10:15;;;;;;;2.77;1.23;;;18.00;99.90;;;;;;5073819;28;20866;-81
2022/07/11 04:12:42;;;;;;;6.00;2.20;;;18.00;99.90;;;;;;5068165;28;21024;-83
2022/07/11 04:15:11;;;;;;;5.93;1.83;;;18.20;99.90;;;;;;5078068;28;20500;-81
2022/07/11 04:17:39;;;;;;;3.17;1.80;;;18.40;99.90;;;;;;5090559;28;20460;-80
2022/07/11 04:20:06;;;;;;;4.90;2.10;;;18.50;99.90;;;;;;5097269;28;20487;-81
2022/07/11 04:22:33;;;;;;;3.97;2.23;;;18.60;99.90;;;;;;5097048;28;20556;-80
2022/07/11 04:25:00;;;;;;;5.07;1.73;;;18.60;99.90;;;;;;5099988;28;20456;-79
2022/07/11 04:27:27;;;;;;;3.53;1.90;;;18.60;99.90;;;;;;5101255;28;20461;-81
2022/07/11 04:29:54;;;;;;;3.33;1.97;;;18.80;99.90;;;;;;5092618;28;20455;-85
2022/07/11 04:32:22;;;;;;;4.17;2.00;;;18.80;99.90;;;;;;5087221;28;20569;-83
2022/07/11 04:34:49;;;;;;;3.70;1.83;;;18.80;99.90;;;;;;5083889;28;20471;-82
2022/07/11 04:37:16;;;;;;;3.77;2.03;;;18.60;99.90;;;;;;5084804;28;20438;-82
2022/07/11 04:39:45;;;;;;;4.80;2.20;;;18.60;99.90;;;;;;5085748;28;20477;-83
2022/07/11 04:42:12;;;;;;;4.03;1.83;;;18.50;99.90;;;;;;5085258;28;20492;-82
2022/07/11 04:44:38;;;;;;;7.90;2.30;;;18.40;99.90;;;;;;5083851;28;20476;-80
2022/07/11 04:47:05;;;;;;;5.97;2.20;;;18.30;99.90;;;;;;5084182;28;20484;-82
2022/07/11 04:49:34;;;;;;;5.80;1.60;;;18.30;99.90;;;;;;5078843;28;20537;-82
2022/07/11 04:52:01;;;;;;;3.40;1.67;;;18.30;99.90;;;;;;5083247;28;20596;-82
2022/07/11 04:54:28;;;;;;;3.80;1.73;;;18.10;99.90;;;;;;5083173;28;20481;-83
2022/07/11 04:56:56;;;;;;;3.60;2.17;;;18.20;99.90;;;;;;5078415;28;20453;-82
2022/07/11 04:59:23;;;;;;;5.70;1.80;;;18.10;99.90;;;;;;5072697;28;20834;-80
2022/07/11 05:01:50;;;;;;;4.50;1.83;;;18.10;99.90;;;;;;5068579;28;20492;-84
2022/07/11 05:04:17;;;;;;;4.53;1.93;;;18.10;99.90;;;;;;5088842;28;20450;-82
2022/07/11 05:06:45;;;;;;;3.30;1.90;;;18.10;99.90;;;;;;5097360;28;20452;-83
2022/07/11 05:09:13;;;;;;;5.80;2.00;;;18.10;99.90;;;;;;5089438;28;20453;-83
2022/07/11 05:11:40;;;;;;;3.97;1.87;;;18.10;99.90;;;;;;5078500;28;20496;-82
2022/07/11 05:14:07;;;;;;;6.90;2.60;;;18.10;99.90;;;;;;5069565;28;20464;-83
2022/07/11 05:16:34;;;;;;;3.63;2.23;;;18.10;99.90;;;;;;5069655;28;20456;-79
2022/07/11 05:19:01;;;;;;;4.70;2.40;;;18.10;99.90;;;;;;5076433;28;20485;-82
2022/07/11 05:21:28;;;;;;;4.93;1.77;;;18.10;99.90;;;;;;5075312;28;20491;-81
2022/07/11 05:23:56;;;;;;;2.73;1.87;;;18.10;99.90;;;;;;5060811;28;20537;-81
2022/07/11 05:26:23;;;;;;;3.83;1.70;;;18.00;99.90;;;;;;5056521;28;20896;-78
2022/07/11 05:28:50;;;;;;;4.97;1.83;;;18.00;99.90;;;;;;5061223;28;20889;-80
2022/07/11 05:31:17;;;;;;;2.47;1.77;;;18.00;99.90;;;;;;5073783;28;20521;-78
2022/07/11 05:33:43;;;;;;;5.77;1.90;;;17.90;99.90;;;;;;5074604;28;20558;-79
2022/07/11 05:36:10;;;;;;;2.83;1.60;;;18.00;99.90;;;;;;5077073;28;20452;-80
2022/07/11 05:38:37;;;;;;;4.30;1.83;;;18.00;99.90;;;;;;5071733;28;21049;-80
2022/07/11 05:41:06;;;;;;;2.60;1.77;;;18.00;99.90;;;;;;5057019;28;20481;-82
2022/07/11 05:43:33;;;;;;;5.17;1.60;;;18.00;99.90;;;;;;5062062;28;20453;-79
2022/07/11 05:46:00;;;;;;;3.43;1.77;;;18.00;99.90;;;;;;5077610;28;20487;-80
2022/07/11 05:48:27;;;;;;;4.10;1.73;;;18.00;99.90;;;;;;5068194;28;20485;-79
2022/07/11 05:50:53;;;;;;;4.30;1.50;;;18.00;99.90;;;;;;5077781;28;20568;-79
2022/07/11 05:53:20;;;;;;;4.67;2.30;;;18.10;99.90;;;;;;5063170;28;20511;-82
2022/07/11 05:55:47;;;;;;;4.53;1.43;;;18.00;99.90;;;;;;5076207;28;20593;-79
2022/07/11 05:58:15;;;;;;;2.70;1.73;;;18.10;99.90;;;;;;5070726;28;21007;-79
2022/07/11 06:00:42;;;;;;;2.83;1.70;;;18.10;99.90;;;;;;5070375;28;20537;-79
2022/07/11 06:03:09;;;;;;;3.63;1.90;;;18.10;99.90;;;;;;5076827;28;20583;-80
2022/07/11 06:05:36;;;;;;;3.10;1.50;;;18.10;99.90;;;;;;5085374;28;20465;-80
2022/07/11 06:10:47;;;;;;;3.07;1.63;;;18.10;99.90;;;;;;5069465;28;20507;-78
2022/07/11 06:13:15;;;;;;;2.20;1.50;;;18.10;99.90;;;;;;5065150;28;20477;-81
2022/07/11 06:15:42;;;;;;;2.30;1.10;;;18.10;99.90;;;;;;5073507;28;21024;-78
2022/07/11 06:18:09;;;;;;;3.10;1.50;;;18.20;99.90;;;;;;5084949;28;20468;-79
2022/07/11 06:20:36;;;;;;;4.67;1.10;;;18.20;99.90;;;;;;5058769;28;20503;-81
2022/07/11 06:23:03;;;;;;;3.80;1.23;;;18.20;99.90;;;;;;5046617;28;20497;-80
2022/07/11 06:25:30;;;;;;;1.80;1.10;;;18.30;99.90;;;;;;5091536;28;20455;-80
2022/07/11 06:27:57;;;;;;;1.73;1.00;;;18.40;99.90;;;;;;5094134;28;20480;-79
2022/07/11 06:30:25;;;;;;;2.27;0.93;;;18.40;99.90;;;;;;5083862;28;20453;-81
2022/07/11 06:32:52;;;;;;;3.40;1.23;;;18.50;99.90;;;;;;5076323;28;20586;-84
2022/07/11 06:35:19;;;;;;;1.90;0.80;;;18.50;99.90;;;;;;5082247;28;20552;-77
2022/07/11 06:37:46;;;;;;;1.70;0.80;;;18.60;99.90;;;;;;5079388;28;20467;-78
2022/07/11 06:40:18;;;;;;;1.93;0.90;;;18.60;99.90;;;;;;5078641;28;20449;-79
2022/07/11 06:42:45;;;;;;;3.00;1.20;;;18.70;99.90;;;;;;5068701;28;20478;-82
2022/07/11 06:45:12;;;;;;;1.70;0.90;;;18.60;99.90;;;;;;5065134;28;20464;-82
2022/07/11 06:47:40;;;;;;;2.30;1.00;;;18.60;99.90;;;;;;5074999;28;20470;-81
2022/07/11 06:50:08;;;;;;;2.50;0.90;;;18.60;99.90;;;;;;5080840;28;20475;-80
2022/07/11 06:52:35;;;;;;;2.10;0.80;;;18.60;99.90;;;;;;5075533;28;20560;-82
2022/07/11 06:55:02;;;;;;;2.17;0.90;;;18.60;99.90;;;;;;5074652;28;20448;-80
2022/07/11 06:57:29;;;;;;;1.90;0.87;;;18.60;99.90;;;;;;5077070;28;20481;-82
2022/07/11 06:59:56;;;;;;;2.10;0.90;;;18.70;99.90;;;;;;5082862;28;20447;-78
2022/07/11 07:02:27;;;;;;;3.03;1.10;;;18.70;99.90;;;;;;5068111;28;20571;-79
2022/07/11 07:04:56;;;;;;;2.10;1.20;;;18.70;99.90;;;;;;5074295;28;20479;-79
2022/07/11 07:07:23;;;;;;;2.30;1.07;;;18.70;99.90;;;;;;5080582;28;20466;-79
2022/07/11 07:09:50;;;;;;;2.73;1.00;;;18.70;99.90;;;;;;5073070;28;20459;-81
2022/07/11 07:12:16;;;;;;;2.90;1.07;;;18.80;99.90;;;;;;5084188;28;20488;-79
2022/07/11 07:14:43;;;;;;;3.10;1.00;;;18.80;99.90;;;;;;5089490;28;20789;-80
2022/07/11 07:17:10;;;;;;;2.37;1.23;;;18.80;99.90;;;;;;5094393;28;20457;-79
2022/07/11 07:19:37;;;;;;;2.63;1.20;;;18.80;99.90;;;;;;5076270;28;20453;-78
2022/07/11 07:22:06;;;;;;;3.40;1.10;;;18.90;99.90;;;;;;5077878;28;21077;-83
2022/07/11 07:24:33;;;;;;;2.90;1.17;;;19.00;99.90;;;;;;5088912;28;20537;-81
2022/07/11 07:27:00;;;;;;;2.83;1.00;;;19.00;99.90;;;;;;5079268;28;20480;-80
2022/07/11 07:29:27;;;;;;;2.60;1.30;;;19.00;99.90;;;;;;5079140;28;20490;-79
2022/07/11 07:31:54;;;;;;;4.00;1.70;;;19.10;99.90;;;;;;5075281;28;20862;-78
2022/07/11 07:34:21;;;;;;;2.20;1.30;;;19.10;99.90;;;;;;5075853;28;20548;-82
2022/07/11 07:36:48;;;;;;;2.20;1.70;;;19.10;99.90;;;;;;5076896;28;20464;-80
2022/07/11 07:39:16;;;;;;;2.90;1.40;;;19.10;99.90;;;;;;5076513;28;20455;-80
2022/07/11 07:41:43;;;;;;;2.60;1.63;;;19.10;99.90;;;;;;5077718;28;20572;-80
2022/07/11 07:44:10;;;;;;;3.20;1.77;;;19.20;99.90;;;;;;5076358;28;20899;-79
2022/07/11 07:46:37;;;;;;;4.90;1.87;;;19.20;99.90;;;;;;5075004;28;20484;-82
2022/07/11 07:49:04;;;;;;;3.17;2.03;;;19.10;99.90;;;;;;5075889;28;20494;-79
2022/07/11 07:51:32;;;;;;;4.73;2.13;;;19.10;99.90;;;;;;5079055;28;20526;-82
2022/07/11 07:53:59;;;;;;;2.43;1.43;;;19.10;99.90;;;;;;5079447;28;20480;-80
2022/07/11 07:56:28;;;;;;;4.17;1.17;;;18.90;99.90;;;;;;5079518;28;20488;-81
2022/07/11 07:58:55;;;;;;;2.90;1.30;;;18.90;99.90;;;;;;5078650;28;20464;-80
2022/07/11 08:01:36;;;;;;;2.60;1.17;;;18.90;99.90;;;;;;5077837;28;20472;-78
2022/07/11 08:04:04;;;;;;;2.50;1.60;;;18.90;99.90;;;;;;5077165;28;20448;-79
2022/07/11 08:06:31;;;;;;;2.47;1.27;;;18.80;99.90;;;;;;5075519;28;20483;-79
2022/07/11 08:08:58;;;;;;;2.23;1.30;;;18.80;99.90;;;;;;5074960;28;20478;-78
2022/07/11 08:11:27;;;;;;;2.27;1.30;;;18.80;99.90;;;;;;5087055;28;20548;-78
2022/07/11 08:13:54;;;;;;;2.10;1.20;;;18.80;99.90;;;;;;5078647;28;20520;-81
2022/07/11 08:16:21;;;;;;;2.20;1.40;;;18.80;99.90;;;;;;5085389;28;20463;-79
2022/07/11 08:18:48;;;;;;;2.97;1.20;;;18.80;99.90;;;;;;5078614;28;20458;-78
2022/07/11 08:21:15;;;;;;;2.43;1.53;;;18.80;99.90;;;;;;5081269;28;20478;-80
2022/07/11 08:23:42;;;;;;;2.67;1.57;;;18.80;99.90;;;;;;5066445;28;20460;-79
2022/07/11 08:26:09;;;;;;;2.53;1.50;;;18.80;99.90;;;;;;5083933;28;20449;-80
2022/07/11 08:28:37;;;;;;;2.50;1.50;;;18.80;99.90;;;;;;5071946;28;20546;-80
2022/07/11 08:31:04;;;;;;;3.10;1.43;;;18.70;99.90;;;;;;5085881;28;20464;-78
2022/07/11 08:33:31;;;;;;;7.43;2.00;;;18.80;99.90;;;;;;5074227;28;20515;-79
2022/07/11 08:35:58;;;;;;;2.83;1.30;;;18.80;99.90;;;;;;5071707;28;20845;-78
2022/07/11 08:38:25;;;;;;;3.03;1.30;;;18.90;99.90;;;;;;5077949;28;20481;-81
2022/07/11 08:40:52;;;;;;;2.20;1.20;;;18.90;99.90;;;;;;5079551;28;20525;-80
2022/07/11 08:43:27;;;;;;;4.13;1.47;;;18.90;99.90;;;;;;5075853;28;20500;-77
2022/07/11 08:45:56;;;;;;;2.67;1.73;;;18.90;99.90;;;;;;5078224;28;20503;-77
2022/07/11 08:48:24;;;;;;;2.47;1.80;;;18.80;99.90;;;;;;5073401;28;20452;-78
2022/07/11 08:50:51;;;;;;;3.37;1.90;;;18.80;99.90;;;;;;5081929;28;20454;-81
2022/07/11 08:53:18;;;;;;;2.67;1.40;;;18.90;99.90;;;;;;5066727;28;20532;-80
2022/07/11 08:55:45;;;;;;;2.93;1.30;;;18.90;99.90;;;;;;5067664;28;20521;-78
2022/07/11 08:58:14;;;;;;;3.10;1.27;;;19.10;99.90;;;;;;5072121;28;20541;-80
2022/07/11 09:00:43;;;;;;;3.63;1.43;;;19.30;99.90;;;;;;5077445;28;21006;-79
2022/07/11 09:03:15;;;;;;;2.73;1.20;;;19.30;99.90;;;;;;5083972;28;20465;-78
2022/07/11 09:05:42;;;;;;;3.67;1.40;;;19.60;99.90;;;;;;5072137;28;20459;-78
2022/07/11 09:08:09;;;;;;;3.70;1.57;;;19.80;99.90;;;;;;5069630;28;20451;-78
2022/07/11 09:10:39;;;;;;;3.87;1.40;;;20.10;99.90;;;;;;5064316;28;20535;-79
2022/07/11 09:13:08;;;;;;;5.77;1.53;;;20.20;99.90;;;;;;5084408;28;20469;-81
2022/07/11 09:15:37;;;;;;;2.30;1.37;;;20.30;99.90;;;;;;5101850;28;20665;-80
2022/07/11 09:18:05;;;;;;;3.00;1.30;;;20.30;99.90;;;;;;5082670;28;20482;-78
2022/07/11 09:26:21;;;;;;;3.00;1.57;;;20.00;99.90;;;;;;5090468;28;20460;-79
2022/07/11 09:29:00;;;;;;;3.30;1.53;;;19.90;99.90;;;;;;5075685;28;20505;-79
2022/07/11 09:31:29;;;;;;;2.70;1.70;;;19.70;99.90;;;;;;5069831;28;20478;-79
2022/07/11 09:34:01;;;;;;;3.60;1.40;;;19.70;99.90;;;;;;5074711;28;20446;-78
2022/07/11 09:36:37;;;;;;;2.33;1.20;;;19.70;99.90;;;;;;5077511;28;20515;-79
2022/07/11 09:39:05;;;;;;;1.87;1.13;;;19.80;99.90;;;;;;5072021;28;20478;-79
2022/07/11 09:41:33;;;;;;;2.17;1.37;;;19.80;99.90;;;;;;5079683;28;20487;-79
2022/07/11 09:44:19;;;;;;;6.03;1.43;;;19.80;99.90;;;;;;5074232;28;20466;-80
2022/07/11 09:46:49;;;;;;;2.90;1.10;;;19.90;99.90;;;;;;5090774;28;20458;-81
2022/07/11 09:49:17;;;;;;;3.87;1.57;;;20.00;99.90;;;;;;5082728;28;20454;-81
2022/07/11 09:51:45;;;;;;;3.30;1.40;;;20.10;99.90;;;;;;5083558;28;20851;-80
2022/07/11 09:54:12;;;;;;;2.30;1.80;;;20.20;99.90;;;;;;5077553;28;21016;-82
2022/07/11 09:56:41;;;;;;;2.17;1.30;;;20.20;99.90;;;;;;5085575;28;20486;-79
2022/07/11 09:59:10;;;;;;;3.30;1.43;;;20.30;99.90;;;;;;5084410;28;20485;-78
2022/07/11 10:01:38;;;;;;;2.37;1.70;;;20.30;99.90;;;;;;5080694;28;20484;-79
2022/07/11 10:04:06;;;;;;;2.40;1.57;;;20.20;99.90;;;;;;5078619;28;20443;-78
2022/07/11 10:06:33;;;;;;;3.20;1.57;;;20.10;99.90;;;;;;5078707;28;20549;-78
2022/07/11 10:09:04;;;;;;;4.30;1.43;;;20.10;99.90;;;;;;5085292;28;20478;-81
2022/07/11 10:11:32;;;;;;;1.93;1.13;;;20.10;99.90;;;;;;5077400;28;20478;-82
2022/07/11 10:14:00;;;;;;;1.80;1.00;;;20.10;99.90;;;;;;5076114;28;20488;-80
2022/07/11 10:16:46;;;;;;;2.27;1.03;;;20.10;99.90;;;;;;5076678;28;20481;-79
2022/07/11 10:19:23;;;;;;;2.57;1.47;;;20.10;99.90;;;;;;5075704;28;20455;-81
2022/07/11 10:21:59;;;;;;;1.93;0.97;;;20.30;99.90;;;;;;5084968;28;20502;-81
2022/07/11 10:24:41;;;;;;;1.93;0.80;;;20.40;99.90;;;;;;5084886;28;20460;-82
2022/07/11 10:27:17;;;;;;;2.93;1.30;;;20.50;99.90;;;;;;5085357;28;20481;-83
2022/07/11 10:29:49;;;;;;;1.80;0.73;;;20.60;99.90;;;;;;5083391;28;20470;-84
2022/07/11 10:32:17;;;;;;;2.27;0.70;;;20.60;99.90;;;;;;5086556;28;20501;-80
2022/07/11 10:34:44;;;;;;;2.33;0.80;;;20.60;99.90;;;;;;5085829;28;20464;-82
2022/07/11 10:37:12;;;;;;;1.90;1.00;;;20.50;99.90;;;;;;5091537;28;20626;-78
2022/07/11 10:39:58;;;;;;;1.60;0.80;;;20.50;99.90;;;;;;5083873;28;20446;-79
2022/07/11 10:42:39;;;;;;;2.17;1.10;;;20.60;99.90;;;;;;5080579;28;20489;-80
2022/07/11 10:45:09;;;;;;;1.97;0.90;;;20.60;99.90;;;;;;5084564;28;20463;-81
2022/07/11 10:47:41;;;;;;;2.37;1.20;;;20.60;99.90;;;;;;5080938;28;20442;-82
2022/07/11 10:50:19;;;;;;;2.00;0.90;;;20.60;99.90;;;;;;5082983;28;20520;-81
2022/07/11 10:52:50;;;;;;;1.80;0.90;;;20.50;99.90;;;;;;5079128;28;21698;-82
2022/07/11 10:55:42;;;;;;;1.80;0.80;;;20.50;99.90;;;;;;5079238;28;20565;-83
2022/07/11 10:58:17;;;;;;;3.80;0.70;;;20.40;99.90;;;;;;5075952;28;20473;-80
2022/07/11 11:00:44;;;;;;;2.53;0.93;;;20.40;99.90;;;;;;5077177;28;20454;-80
2022/07/11 11:03:11;;;;;;;1.80;0.77;;;20.40;99.90;;;;;;5080302;28;20494;-82
2022/07/11 11:05:48;;;;;;;1.70;0.80;;;20.50;99.90;;;;;;5081190;28;20459;-80
2022/07/11 11:08:43;;;;;;;1.70;0.70;;;20.60;99.90;;;;;;5083259;28;20435;-82
2022/07/11 11:11:43;;;;;;;1.87;1.07;;;20.60;99.90;;;;;;5067821;28;20451;-83
2022/07/11 11:14:27;;;;;;;2.67;0.80;;;20.80;99.90;;;;;;5068774;28;20479;-79
2022/07/11 11:16:54;;;;;;;1.80;0.70;;;20.90;99.90;;;;;;5081214;28;20454;-79
2022/07/11 11:20:10;;;;;;;1.77;0.80;;;20.90;99.90;;;;;;5084831;28;20447;-81
2022/07/11 11:22:38;;;;;;;1.90;0.90;;;21.20;99.90;;;;;;5060822;28;20506;-79
2022/07/11 11:25:08;;;;;;;2.20;0.90;;;21.30;99.90;;;;;;5086216;28;20443;-80
2022/07/11 11:27:35;;;;;;;2.00;1.30;;;21.30;99.90;;;;;;5086718;28;20451;-80
2022/07/11 11:30:07;;;;;;;2.17;0.93;;;21.40;99.90;;;;;;5082473;28;20467;-83
2022/07/11 11:32:35;;;;;;;2.13;1.10;;;21.30;99.90;;;;;;5080331;28;20494;-81
2022/07/11 11:35:03;;;;;;;1.90;1.00;;;21.40;99.90;;;;;;5079683;28;20459;-78
2022/07/11 11:37:30;;;;;;;2.00;1.00;;;21.30;99.90;;;;;;5081692;28;20447;-81
2022/07/11 11:40:00;;;;;;;2.43;1.07;;;21.30;99.90;;;;;;5072893;28;20950;-79
2022/07/11 11:42:30;;;;;;;3.60;1.13;;;21.20;99.90;;;;;;5072856;28;20915;-79
2022/07/11 11:44:59;;;;;;;2.30;1.00;;;21.30;99.90;;;;;;5071560;28;20462;-78
2022/07/11 11:47:30;;;;;;;2.00;0.97;;;21.30;99.90;;;;;;5077520;28;20595;-81
2022/07/11 11:49:57;;;;;;;1.90;0.80;;;21.30;99.90;;;;;;5071268;28;20538;-78
2022/07/11 11:52:25;;;;;;;2.50;0.80;;;21.30;99.90;;;;;;5079382;28;20501;-83
2022/07/11 11:55:00;;;;;;;2.00;0.93;;;21.30;99.90;;;;;;5078462;28;20927;-82
2022/07/11 11:57:29;;;;;;;2.23;0.87;;;21.30;99.90;;;;;;5087162;28;20445;-80
2022/07/11 11:59:57;;;;;;;3.53;1.00;;;21.30;99.90;;;;;;5082324;28;20477;-79
2022/07/11 12:02:25;;;;;;;1.90;0.97;;;21.30;99.90;;;;;;5077916;28;20483;-80
2022/07/11 12:04:53;;;;;;;2.20;0.90;;;21.30;99.90;;;;;;5079027;28;20447;-78
2022/07/11 12:07:29;;;;;;;1.70;0.80;;;21.30;99.90;;;;;;5079377;28;20535;-79
2022/07/11 12:09:57;;;;;;;2.13;0.90;;;21.30;99.90;;;;;;5081226;28;20538;-79
2022/07/11 12:12:45;;;;;;;3.03;0.83;;;21.30;99.90;;;;;;5074987;28;20833;-79
2022/07/11 12:15:27;;;;;;;2.00;0.90;;;21.30;99.90;;;;;;5078734;28;20458;-79
2022/07/11 12:17:59;;;;;;;2.00;1.00;;;21.40;99.90;;;;;;5080836;28;20447;-81
2022/07/11 12:20:38;;;;;;;2.40;1.43;;;21.40;99.90;;;;;;5072775;28;20454;-80
2022/07/11 12:23:07;;;;;;;2.10;0.80;;;21.60;99.90;;;;;;5076952;28;20844;-81
2022/07/11 12:25:35;;;;;;;2.03;0.80;;;21.50;99.90;;;;;;5081955;28;20451;-80
2022/07/11 12:28:02;;;;;;;1.70;0.77;;;21.70;99.90;;;;;;5081309;28;20461;-82
2022/07/11 12:30:29;;;;;;;1.70;0.80;;;21.80;99.90;;;;;;5083578;28;20875;-80
2022/07/11 12:33:11;;;;;;;1.80;0.73;;;21.80;99.90;;;;;;5077122;28;20982;-78
2022/07/11 12:35:55;;;;;;;1.70;1.00;;;21.90;99.90;;;;;;5080708;28;20474;-81
2022/07/11 12:38:22;;;;;;;2.10;1.13;;;21.90;99.90;;;;;;5082402;28;20474;-81
2022/07/11 12:41:00;;;;;;;1.80;0.97;;;22.00;99.90;;;;;;5090184;28;20446;-81
2022/07/11 12:46:31;;;;;;;2.27;0.90;;;22.20;99.90;;;;;;5079727;28;20534;-79
2022/07/11 12:49:01;;;;;;;2.73;1.00;;;22.40;99.90;;;;;;5081093;28;20451;-79
2022/07/11 12:51:30;;;;;;;2.00;0.90;;;22.40;99.90;;;;;;5081844;28;20478;-79
2022/07/11 12:54:02;;;;;;;2.03;0.90;;;22.50;99.90;;;;;;5081251;28;20479;-79
2022/07/11 12:56:29;;;;;;;1.83;0.90;;;22.70;99.90;;;;;;5082979;28;20453;-80
2022/07/11 12:58:56;;;;;;;1.80;0.80;;;22.80;99.90;;;;;;5082312;28;20477;-80
2022/07/11 13:01:23;;;;;;;2.00;1.10;;;22.80;99.90;;;;;;5081039;28;20479;-82
2022/07/11 13:03:51;;;;;;;3.77;1.80;;;22.70;99.90;;;;;;5081792;28;20439;-80
2022/07/11 13:08:41;;;;;;;2.83;1.47;;;22.60;99.90;;;;;;5080582;28;20827;-84
2022/07/11 13:09:05;;;;;;;2.10;1.00;;;22.70;99.90;;;;;;5079634;28;20453;-79